Address 0xa76cdc2d530af38aae97a0ed162c28ebea9056b5

 
 
Txn Hash Method
Block
From
To
Value [Txn Fee]
0x3d9b0c691ffd2725f9909a016bcfd10924bbdabdc42dd9045b52045234d7c350Transfer112645282021-09-27 0:00:421 hr 59 mins ago0xa76cdc2d530af38aae97a0ed162c28ebea9056b5SELF0xa76cdc2d530af38aae97a0ed162c28ebea9056b50 BNB0.00016317
0x79c7c36727632d7aab7f0555af5f02dded4401393d31bbf00eb018b0a61680c00x1de9c881112610432021-09-26 21:05:384 hrs 54 mins ago0xa76cdc2d530af38aae97a0ed162c28ebea9056b5OUT 0x4d59793411b67b611cad8d164eefe3cc945603a10 BNB0.000265074
0xac8ac93e9870fa5d5587c1fbe77ebd896977bb74baedcf2b509502fb2bd21d980x1de9c881112553192021-09-26 16:16:549 hrs 43 mins ago0xa76cdc2d530af38aae97a0ed162c28ebea9056b5OUT 0x99c31826c5621fb30969de789342f2d0f4b6f26d0 BNB0.002724694
0x90702c704bb208b0e8c3a655a5e4b0faf113bf614ac9567625c72e58ee6d39b90x1de9c881112528602021-09-26 14:12:5111 hrs 47 mins ago0xa76cdc2d530af38aae97a0ed162c28ebea9056b5OUT 0x215717cf68d43f3f92ed273690c8a7f4d682c9500 BNB0.00022136
0x025f8b3be90abf85bf46046f464ecfa88416decb3be4eb9de0ce7ed1f3353d9a0x1de9c881112527652021-09-26 14:07:5911 hrs 52 mins ago0xa76cdc2d530af38aae97a0ed162c28ebea9056b5OUT 0x99c31826c5621fb30969de789342f2d0f4b6f26d0 BNB0.000220955
0x2f54523cb36c8359c672d5566c1874fe7c8a836b7cd6b79548374df58a49097f0x1de9c881112527122021-09-26 14:05:2011 hrs 55 mins ago0xa76cdc2d530af38aae97a0ed162c28ebea9056b5OUT 0x215717cf68d43f3f92ed273690c8a7f4d682c9500 BNB0.000220795
0xb3cf59c5e59dc5bed0082a2c0053578da4c8ccb055307f09fa10d93ca0cf36940x1de9c881112490302021-09-26 10:59:3015 hrs ago0xa76cdc2d530af38aae97a0ed162c28ebea9056b5OUT 0x4d59793411b67b611cad8d164eefe3cc945603a10 BNB0.000220855
0x34c2f21b2f69dd881f23bfc0283e9a31677990512f57c8f540ea714e5bf484940x1de9c881112482762021-09-26 10:21:4415 hrs 38 mins ago0xa76cdc2d530af38aae97a0ed162c28ebea9056b5OUT 0x215717cf68d43f3f92ed273690c8a7f4d682c9500 BNB0.000243624
0x4684733954fe2f8b10187d0fb1a25b3a693717c50205fa64b4c6b38d8b3e6a190x1de9c881112475892021-09-26 9:46:5516 hrs 13 mins ago0xa76cdc2d530af38aae97a0ed162c28ebea9056b5OUT 0x215717cf68d43f3f92ed273690c8a7f4d682c9500 BNB0.000230025
0x039897fd808aeefaa60fbc6d7a0ace546d10dcdd9a3987674b83cca86aac117f0x1de9c881112472752021-09-26 9:31:0016 hrs 29 mins ago0xa76cdc2d530af38aae97a0ed162c28ebea9056b5OUT 0x4d59793411b67b611cad8d164eefe3cc945603a10 BNB0.000679824
0x6e41b6cb6c885944e56e7b85ba380ba33cf2583d167cd3af998f43131c4f17760x1de9c881112471722021-09-26 9:25:5016 hrs 34 mins ago0xa76cdc2d530af38aae97a0ed162c28ebea9056b5OUT 0x215717cf68d43f3f92ed273690c8a7f4d682c9500 BNB0.000203255
0x6a48bdb5379ef79039a0dfabbac2c3514fa07ebc67209428c709d14b3e71368f0x1de9c881112447772021-09-26 7:25:5618 hrs 34 mins ago0xa76cdc2d530af38aae97a0ed162c28ebea9056b5OUT 0x99c31826c5621fb30969de789342f2d0f4b6f26d0 BNB0.0001787652
0xfd3959b85d27c71733ef41b6d2d4c14ba6dd81cf08afa6483f3bc002661dcacd0x1de9c881112446922021-09-26 7:21:4118 hrs 38 mins ago0xa76cdc2d530af38aae97a0ed162c28ebea9056b5OUT 0x4d59793411b67b611cad8d164eefe3cc945603a10 BNB0.00051983229
0xdb220b062664c151fdd8e38f5e6f8b0e3e497e91445121c8b87b2113beb23e830x1de9c881112440272021-09-26 6:47:2119 hrs 13 mins ago0xa76cdc2d530af38aae97a0ed162c28ebea9056b5OUT 0x99c31826c5621fb30969de789342f2d0f4b6f26d0 BNB0.000492826424
0xfcddb336412c5b5063cbb71491d556f67fda66e0a8205ddbdc5bb5faad6393450x1de9c881112438092021-09-26 6:36:2719 hrs 24 mins ago0xa76cdc2d530af38aae97a0ed162c28ebea9056b5OUT 0x4d59793411b67b611cad8d164eefe3cc945603a10 BNB0.00018408
0x19e998cfadbcbad4697c825abece0d259a46cc771eb40d6acd65615a1e569e0c0x1de9c881112426332021-09-26 5:36:5920 hrs 23 mins ago0xa76cdc2d530af38aae97a0ed162c28ebea9056b5OUT 0x99c31826c5621fb30969de789342f2d0f4b6f26d0 BNB0.000216147816
0xa13374494e4db0e38859f23e5cf3833ae61e1cb090e735b77fccaef0148a1d2c0x1de9c881112403822021-09-26 3:43:2922 hrs 17 mins ago0xa76cdc2d530af38aae97a0ed162c28ebea9056b5OUT 0xb4f7c63d1846038e0386d438a3cecd1cffa63ed70 BNB0.000194727959
0x3f150b83e2e9cdf0918c585fd0f887eaa92c4f3f93a58ad4d3a9ccee150232a90x1de9c881112373642021-09-26 1:11:421 day 48 mins ago0xa76cdc2d530af38aae97a0ed162c28ebea9056b5OUT 0x4d59793411b67b611cad8d164eefe3cc945603a10 BNB0.000230185056
0x80164bc31caee344540dd9daf5785415eb0d65f56c32673eb0e6fda81ff44c270x1de9c881112303722021-09-25 19:21:541 day 6 hrs ago0xa76cdc2d530af38aae97a0ed162c28ebea9056b5OUT 0x4d59793411b67b611cad8d164eefe3cc945603a10 BNB0.000212425
0x15b0e7b41a93223944ba0e71d406bcbb65fa01959ac11d989879a12aebbaeadc0x1de9c881112254652021-09-25 15:13:491 day 10 hrs ago0xa76cdc2d530af38aae97a0ed162c28ebea9056b5OUT 0x99c31826c5621fb30969de789342f2d0f4b6f26d0 BNB0.000212135
0xa535da98f866879f7e985f1203970ab53ad6d16825d0981d85e1ce3b62ed0c060x1de9c881112247522021-09-25 14:38:101 day 11 hrs ago0xa76cdc2d530af38aae97a0ed162c28ebea9056b5OUT 0xeea097ee6c062333f797e748e46b763aca3d52420 BNB0.0002160819
0xbba3217132bff17fb767441ff755d18650edb57fb1c7c3a413d5f70020a50a000x1de9c881112241742021-09-25 14:09:161 day 11 hrs ago0xa76cdc2d530af38aae97a0ed162c28ebea9056b5OUT 0x99c31826c5621fb30969de789342f2d0f4b6f26d0 BNB0.000220855
0xf8078e586494864f7041a122273bf176a2d1acce634385f21979b6092232bcbeTransfer112164502021-09-25 7:40:161 day 18 hrs ago0xa76cdc2d530af38aae97a0ed162c28ebea9056b5SELF0xa76cdc2d530af38aae97a0ed162c28ebea9056b50 BNB0.000118881
0x3c0d9ec09d00e6323792cb269325cfd7436c5431faab3f23fffa4d8c0cc1a2110x1de9c881112121632021-09-25 4:04:491 day 21 hrs ago0xa76cdc2d530af38aae97a0ed162c28ebea9056b5OUT 0xb4f7c63d1846038e0386d438a3cecd1cffa63ed70 BNB0.00026538
0x05eeeb3a4903de0a6b82fe130d12c8175506e5e39fdfa15d4d789b97d7a6f98bTransfer112046232021-09-24 21:46:052 days 4 hrs ago0xa76cdc2d530af38aae97a0ed162c28ebea9056b5SELF0xa76cdc2d530af38aae97a0ed162c28ebea9056b50 BNB0.00011655
[ Download CSV Export 
Parent Txn Hash Block From To Value
Loading

Contract Name:
0 BNB

Compiler Version
0

Optimization Enabled:
0 BNB

Other Settings:
-NA-
Block Transaction Gas Used Reward
Age Block Fee Address BC Fee Address Voting Power Jailed Incoming
Block Uncle Number Difficulty Gas Used Reward
Loading
Loading
Make sure to use the "Vote Down" button for any spammy posts, and the "Vote Up" for interesting conversations.